createdAt,value
2023-03-05T00:01:34.426Z,36.63
2023-03-05T00:04:03.742Z,33.22
2023-03-05T00:06:32.914Z,34.22
2023-03-05T00:09:01.235Z,37.88
2023-03-05T00:11:31.068Z,37.28
2023-03-05T00:13:59.784Z,34.08
2023-03-05T00:16:29.411Z,33.78
2023-03-05T00:18:58.624Z,31.62
2023-03-05T00:21:30.705Z,33.17
2023-03-05T00:23:59.683Z,39.88
2023-03-05T00:26:28.564Z,34.75
2023-03-05T00:28:58.405Z,37.10
2023-03-05T00:31:31.439Z,32.72
2023-03-05T00:34:02.229Z,32.00
2023-03-05T00:36:30.361Z,38.25
2023-03-05T00:38:58.868Z,32.45
2023-03-05T00:41:27.381Z,38.15
2023-03-05T00:43:55.310Z,39.40
2023-03-05T00:46:24.176Z,34.67
2023-03-05T00:48:51.800Z,36.13
2023-03-05T00:51:19.538Z,31.60
2023-03-05T00:53:47.348Z,37.58
2023-03-05T00:56:15.070Z,34.70
2023-03-05T00:58:42.837Z,37.45
2023-03-05T01:01:10.947Z,36.25
2023-03-05T01:03:38.648Z,33.70
2023-03-05T01:06:09.137Z,31.30
2023-03-05T01:08:37.479Z,30.40
2023-03-05T01:11:06.633Z,31.80
2023-03-05T01:13:34.382Z,31.58
2023-03-05T01:16:02.554Z,33.65
2023-03-05T01:18:30.304Z,38.05
2023-03-05T01:20:58.157Z,32.70
2023-03-05T01:23:25.803Z,29.92
2023-03-05T01:25:58.215Z,31.80
2023-03-05T01:28:27.043Z,30.40
2023-03-05T01:30:54.688Z,34.72
2023-03-05T01:33:22.392Z,32.95
2023-03-05T01:35:50.907Z,29.83
2023-03-05T01:38:19.269Z,32.70
2023-03-05T01:40:47.028Z,30.42
2023-03-05T01:43:14.594Z,34.53
2023-03-05T01:46:19.974Z,31.40
2023-03-05T01:48:52.015Z,37.67
2023-03-05T01:51:21.338Z,33.35
2023-03-05T01:53:49.178Z,38.03
2023-03-05T01:56:18.001Z,34.33
2023-03-05T01:58:46.536Z,36.25
2023-03-05T02:01:14.454Z,33.17
2023-03-05T02:03:43.457Z,32.92
2023-03-05T02:06:11.533Z,36.88
2023-03-05T02:08:39.239Z,35.63
2023-03-05T02:11:07.278Z,39.35
2023-03-05T02:13:39.724Z,35.47
2023-03-05T02:16:08.461Z,33.20
2023-03-05T02:18:36.434Z,34.97
2023-03-05T02:21:13.088Z,32.88
2023-03-05T02:23:41.390Z,34.83
2023-03-05T02:26:11.811Z,32.15
2023-03-05T02:28:43.822Z,33.97
2023-03-05T02:31:15.962Z,35.67
2023-03-05T02:33:43.738Z,37.83
2023-03-05T02:36:13.104Z,35.05
2023-03-05T02:38:42.402Z,35.13
2023-03-05T02:41:10.752Z,33.03
2023-03-05T02:43:38.552Z,34.42
2023-03-05T02:46:07.205Z,31.33
2023-03-05T02:48:35.043Z,35.15
2023-03-05T02:51:04.460Z,37.88
2023-03-05T02:53:32.166Z,35.60
2023-03-05T02:55:59.981Z,30.92
2023-03-05T02:58:27.685Z,38.72
2023-03-05T03:00:55.427Z,34.28
2023-03-05T03:03:23.228Z,33.75
2023-03-05T03:05:51.019Z,34.13
2023-03-05T03:08:18.648Z,33.67
2023-03-05T03:10:46.251Z,34.58
2023-03-05T03:13:13.988Z,32.53
2023-03-05T03:15:41.632Z,36.70
2023-03-05T03:18:09.327Z,36.67
2023-03-05T03:20:40.336Z,35.35
2023-03-05T03:23:08.517Z,36.35
2023-03-05T03:25:36.303Z,36.00
2023-03-05T03:28:04.149Z,34.92
2023-03-05T03:30:31.860Z,38.10
2023-03-05T03:32:59.606Z,31.80
2023-03-05T03:35:27.272Z,40.75
2023-03-05T03:37:54.915Z,32.97
2023-03-05T03:40:22.915Z,35.33
2023-03-05T03:42:53.222Z,37.50
2023-03-05T03:45:23.261Z,32.25
2023-03-05T03:47:51.502Z,36.80
2023-03-05T03:50:19.925Z,36.22
2023-03-05T03:52:47.645Z,37.70
2023-03-05T03:55:15.419Z,35.22
2023-03-05T03:57:44.612Z,39.33
2023-03-05T04:00:13.040Z,33.05
2023-03-05T04:02:40.955Z,32.08
2023-03-05T04:05:09.290Z,36.10
2023-03-05T04:07:37.030Z,37.85
2023-03-05T04:10:05.654Z,38.30
2023-03-05T04:12:33.821Z,31.23
2023-03-05T04:15:01.598Z,38.50
2023-03-05T04:17:29.324Z,34.35
2023-03-05T04:19:57.087Z,39.50
2023-03-05T04:22:24.799Z,39.63
2023-03-05T04:24:52.536Z,39.22
2023-03-05T04:27:20.304Z,37.33
2023-03-05T04:29:48.051Z,38.67
2023-03-05T04:32:15.866Z,35.63
2023-03-05T04:34:43.538Z,36.95
2023-03-05T04:37:11.224Z,42.92
2023-03-05T04:39:39.385Z,40.53
2023-03-05T04:42:07.342Z,35.45
2023-03-05T04:44:35.140Z,40.63
2023-03-05T04:47:02.807Z,38.92
2023-03-05T04:49:31.013Z,35.63
2023-03-05T04:51:58.777Z,36.90
2023-03-05T04:54:26.550Z,38.78
2023-03-05T04:56:54.238Z,39.53
2023-03-05T04:59:21.916Z,34.33
2023-03-05T05:01:49.673Z,36.83
2023-03-05T05:04:17.445Z,39.40
2023-03-05T05:06:45.120Z,38.20
2023-03-05T05:09:12.860Z,35.55
2023-03-05T05:11:41.213Z,40.60
2023-03-05T05:14:08.979Z,35.83
2023-03-05T05:16:36.753Z,28.50
2023-03-05T05:19:04.914Z,31.12
2023-03-05T05:21:32.740Z,31.58
2023-03-05T05:24:00.390Z,36.15
2023-03-05T05:26:29.965Z,35.65
2023-03-05T05:28:57.682Z,37.58
2023-03-05T05:31:25.393Z,34.22
2023-03-05T05:33:53.179Z,38.40
2023-03-05T05:36:23.313Z,43.47
2023-03-05T05:38:51.323Z,33.67
2023-03-05T05:41:20.231Z,35.90
2023-03-05T05:43:48.108Z,36.03
2023-03-05T05:46:18.840Z,44.92
2023-03-05T05:48:47.604Z,36.60
2023-03-05T05:51:23.824Z,36.40
2023-03-05T05:53:51.795Z,30.35
2023-03-05T05:56:20.298Z,37.22
2023-03-05T05:58:50.095Z,44.42
2023-03-05T06:01:23.813Z,31.15
2023-03-05T06:03:51.794Z,33.47
2023-03-05T06:06:21.740Z,35.45
2023-03-05T06:08:50.098Z,33.13
2023-03-05T06:11:19.399Z,36.67
2023-03-05T06:13:48.529Z,36.53
2023-03-05T06:16:19.442Z,34.55
2023-03-05T06:18:47.616Z,42.55
2023-03-05T06:21:17.386Z,42.72
2023-03-05T06:23:46.443Z,37.85
2023-03-05T06:26:17.409Z,35.22
2023-03-05T06:28:45.517Z,32.55
2023-03-05T06:31:16.043Z,34.10
2023-03-05T06:33:44.486Z,31.58
2023-03-05T06:36:16.352Z,31.77
2023-03-05T06:38:44.626Z,31.50
2023-03-05T06:41:14.861Z,34.00
2023-03-05T06:43:45.041Z,37.88
2023-03-05T06:46:24.286Z,37.17
2023-03-05T06:48:52.908Z,33.83
2023-03-05T06:51:23.590Z,37.20
2023-03-05T06:53:52.314Z,33.55
2023-03-05T06:56:20.993Z,36.65
2023-03-05T06:58:50.512Z,36.33
2023-03-05T07:01:19.072Z,33.22
2023-03-05T07:03:50.953Z,32.42
2023-03-05T07:06:19.299Z,36.67
2023-03-05T07:08:47.628Z,33.42
2023-03-05T07:11:21.055Z,37.25
2023-03-05T07:13:49.450Z,34.05
2023-03-05T07:16:23.325Z,31.77
2023-03-05T07:18:51.048Z,38.03
2023-03-05T07:21:24.148Z,37.97
2023-03-05T07:23:54.695Z,33.25
2023-03-05T07:26:23.336Z,37.53
2023-03-05T07:28:51.030Z,32.75
2023-03-05T07:31:21.936Z,37.47
2023-03-05T07:33:51.379Z,32.85
2023-03-05T07:36:19.569Z,37.33
2023-03-05T07:38:47.552Z,32.38
2023-03-05T07:41:22.480Z,34.22
2023-03-05T07:43:52.237Z,33.00
2023-03-05T07:46:22.449Z,38.38
2023-03-05T07:48:50.306Z,32.47
2023-03-05T07:51:20.953Z,32.03
2023-03-05T07:53:50.318Z,38.47
2023-03-05T07:56:26.662Z,40.03
2023-03-05T07:58:54.580Z,38.45
2023-03-05T08:01:22.449Z,33.70
2023-03-05T08:03:50.327Z,37.72
2023-03-05T08:06:18.150Z,34.47
2023-03-05T08:08:45.917Z,38.05
2023-03-05T08:11:16.799Z,37.75
2023-03-05T08:13:46.095Z,32.42
2023-03-05T08:16:20.091Z,35.53
2023-03-05T08:18:48.534Z,30.62
2023-03-05T08:21:28.070Z,32.92
2023-03-05T08:23:59.618Z,42.53
2023-03-05T08:26:30.556Z,34.60
2023-03-05T08:28:59.396Z,38.67
2023-03-05T08:31:28.809Z,34.47
2023-03-05T08:33:58.336Z,34.70
2023-03-05T08:36:26.136Z,34.85
2023-03-05T08:38:53.919Z,31.17
2023-03-05T08:41:21.717Z,33.90
2023-03-05T08:43:49.932Z,34.83
2023-03-05T08:46:18.236Z,29.77
2023-03-05T08:48:46.106Z,35.83
2023-03-05T08:51:16.222Z,35.58
2023-03-05T08:53:45.696Z,32.63
2023-03-05T08:56:14.524Z,34.83
2023-03-05T08:58:42.297Z,32.20
2023-03-05T09:01:10.212Z,31.50
2023-03-05T09:03:38.258Z,29.58
2023-03-05T09:06:09.314Z,34.30
2023-03-05T09:08:37.488Z,34.60
2023-03-05T09:11:09.356Z,29.15
2023-03-05T09:13:37.730Z,32.25
2023-03-05T09:16:08.524Z,37.80
2023-03-05T09:18:37.774Z,34.63
2023-03-05T09:21:07.091Z,30.90
2023-03-05T09:23:35.148Z,34.00
2023-03-05T09:26:03.536Z,29.70
2023-03-05T09:28:31.258Z,30.48
2023-03-05T09:30:59.018Z,34.72
2023-03-05T09:33:26.753Z,31.75
2023-03-05T09:35:54.574Z,32.80
2023-03-05T09:38:22.534Z,28.70
2023-03-05T09:41:19.772Z,27.37
2023-03-05T09:44:24.493Z,28.15
2023-03-05T09:47:02.653Z,20.80
2023-03-05T09:50:00.037Z,21.58
2023-03-05T09:52:37.814Z,20.25
2023-03-05T09:55:12.378Z,23.62
2023-03-05T09:57:48.105Z,19.87
2023-03-05T10:00:35.535Z,21.98
2023-03-05T10:03:08.290Z,26.48
2023-03-05T10:05:55.111Z,23.15
2023-03-05T10:08:29.709Z,25.45
2023-03-05T10:10:58.201Z,25.83
2023-03-05T10:13:31.545Z,27.95
2023-03-05T10:16:27.695Z,26.25
2023-03-05T10:19:14.149Z,25.55
2023-03-05T10:21:54.628Z,24.83
2023-03-05T10:24:48.317Z,24.83
2023-03-05T10:27:22.341Z,27.48
2023-03-05T10:30:05.092Z,23.23
2023-03-05T10:32:57.160Z,23.05
2023-03-05T10:35:33.794Z,24.30
2023-03-05T10:38:32.797Z,23.65
2023-03-05T10:41:09.484Z,26.98
2023-03-05T10:43:37.216Z,27.05
2023-03-05T10:46:06.235Z,26.23
2023-03-05T10:48:42.716Z,28.40
2023-03-05T10:51:16.747Z,25.50
2023-03-05T10:53:54.289Z,28.85
2023-03-05T10:56:25.481Z,26.33
2023-03-05T10:58:55.759Z,30.27
2023-03-05T11:01:27.258Z,21.90
2023-03-05T11:04:00.595Z,23.55
2023-03-05T11:06:35.777Z,26.55
2023-03-05T11:09:21.800Z,23.12
2023-03-05T11:12:05.589Z,25.00
2023-03-05T11:14:35.079Z,24.87
2023-03-05T11:17:23.778Z,25.60
2023-03-05T11:19:51.479Z,23.83
2023-03-05T11:22:24.414Z,23.33
2023-03-05T11:25:20.174Z,28.33
2023-03-05T11:27:55.781Z,22.05
2023-03-05T11:30:30.162Z,20.90
2023-03-05T11:33:23.721Z,22.05
2023-03-05T11:35:53.509Z,19.17
2023-03-05T11:38:27.736Z,17.45
2023-03-05T11:40:58.341Z,15.00
2023-03-05T11:43:27.384Z,14.68
2023-03-05T11:46:00.684Z,11.52
2023-03-05T11:48:36.010Z,14.25
2023-03-05T11:51:09.624Z,15.45
2023-03-05T11:53:39.995Z,13.60
2023-03-05T11:56:22.118Z,18.12
2023-03-05T11:59:00.436Z,16.10
2023-03-05T12:01:32.928Z,13.02
2023-03-05T12:04:01.554Z,15.77
2023-03-05T12:06:53.082Z,12.88
2023-03-05T12:09:39.492Z,10.15
2023-03-05T12:12:33.383Z,11.68
2023-03-05T12:15:04.078Z,6.87
2023-03-05T12:17:38.584Z,9.05
2023-03-05T12:20:24.669Z,5.53
2023-03-05T12:22:52.711Z,5.72
2023-03-05T12:25:26.972Z,6.40
2023-03-05T12:27:55.062Z,6.82
2023-03-05T12:30:43.574Z,9.23
2023-03-05T12:33:39.195Z,10.85
2023-03-05T12:36:22.381Z,9.40
2023-03-05T12:38:57.425Z,11.02
2023-03-05T12:41:27.581Z,7.60
2023-03-05T12:44:07.923Z,11.48
2023-03-05T12:46:45.377Z,11.00
2023-03-05T12:49:18.985Z,12.45
2023-03-05T12:51:52.249Z,13.93
2023-03-05T12:54:23.069Z,12.60
2023-03-05T12:56:53.291Z,11.18
2023-03-05T12:59:24.411Z,12.20
2023-03-05T13:02:01.684Z,12.45
2023-03-05T13:04:34.855Z,9.68
2023-03-05T13:07:06.996Z,11.02
2023-03-05T13:09:37.515Z,11.70
2023-03-05T13:12:11.315Z,8.95
2023-03-05T13:14:43.024Z,8.95
2023-03-05T13:17:32.151Z,11.25
2023-03-05T13:20:01.359Z,8.57
2023-03-05T13:22:30.855Z,11.27
2023-03-05T13:25:24.774Z,10.73
2023-03-05T13:27:52.536Z,8.55
2023-03-05T13:30:27.268Z,10.70
2023-03-05T13:33:04.192Z,8.80
2023-03-05T13:35:35.650Z,12.10
2023-03-05T13:38:03.399Z,9.48
2023-03-05T13:40:33.973Z,8.52
2023-03-05T13:43:21.757Z,8.48
2023-03-05T13:45:56.077Z,10.05
2023-03-05T13:48:24.215Z,8.40
2023-03-05T13:50:58.270Z,7.20
2023-03-05T13:53:29.433Z,10.32
2023-03-05T13:56:09.094Z,8.68
2023-03-05T13:58:45.626Z,9.35
2023-03-05T14:01:31.245Z,9.93
2023-03-05T14:04:13.805Z,7.95
2023-03-05T14:07:08.650Z,8.73
2023-03-05T14:09:42.075Z,11.88
2023-03-05T14:12:25.300Z,8.95
2023-03-05T14:14:53.017Z,10.85
2023-03-05T14:17:38.182Z,8.68
2023-03-05T14:20:20.716Z,10.35
2023-03-05T14:22:52.182Z,9.57
2023-03-05T14:25:38.328Z,12.23
2023-03-05T14:28:29.546Z,8.52
2023-03-05T14:30:58.395Z,8.60
2023-03-05T14:33:32.854Z,9.15
2023-03-05T14:36:03.095Z,9.10
2023-03-05T14:38:34.810Z,9.80
2023-03-05T14:41:36.915Z,7.72
2023-03-05T14:44:12.695Z,8.15
2023-03-05T14:46:40.603Z,6.97
2023-03-05T14:49:08.590Z,6.25
2023-03-05T14:51:43.640Z,7.47
2023-03-05T14:54:39.161Z,7.93
2023-03-05T14:57:07.315Z,6.85
2023-03-05T14:59:35.094Z,6.40
2023-03-05T15:02:02.920Z,8.02
2023-03-05T15:04:30.893Z,6.72
2023-03-05T15:06:58.576Z,6.60
2023-03-05T15:09:28.062Z,9.00
2023-03-05T15:11:55.779Z,7.10
2023-03-05T15:14:23.548Z,6.32
2023-03-05T15:16:51.485Z,8.13
2023-03-05T15:19:19.492Z,7.85
2023-03-05T15:21:47.186Z,7.20
2023-03-05T15:24:15.881Z,7.80
2023-03-05T15:26:43.668Z,8.23
2023-03-05T15:29:11.398Z,5.60
2023-03-05T15:31:41.579Z,7.07
2023-03-05T15:34:09.427Z,7.05
2023-03-05T15:36:37.148Z,5.72
2023-03-05T15:39:04.990Z,8.73
2023-03-05T15:41:32.901Z,6.45
2023-03-05T15:44:00.642Z,7.55
2023-03-05T15:46:28.582Z,5.75
2023-03-05T15:48:56.572Z,6.95
2023-03-05T15:51:24.359Z,8.77
2023-03-05T15:53:52.137Z,6.78
2023-03-05T15:56:20.679Z,6.57
2023-03-05T15:58:50.398Z,7.57
2023-03-05T16:01:20.584Z,7.62
2023-03-05T16:03:48.598Z,7.53
2023-03-05T16:06:21.482Z,6.00
2023-03-05T16:08:49.936Z,6.78
2023-03-05T16:11:19.005Z,6.87
2023-03-05T16:13:46.832Z,7.60
2023-03-05T16:16:15.093Z,7.05
2023-03-05T16:18:46.025Z,5.87
2023-03-05T16:21:15.080Z,7.97
2023-03-05T16:23:42.911Z,8.90
2023-03-05T16:26:11.740Z,7.43
2023-03-05T16:28:41.092Z,8.25
2023-03-05T16:31:08.916Z,6.90
2023-03-05T16:33:36.885Z,6.60
2023-03-05T16:36:22.245Z,6.37
2023-03-05T16:38:51.606Z,8.00
2023-03-05T16:41:20.790Z,8.93
2023-03-05T16:43:49.431Z,8.90
2023-03-05T16:46:17.763Z,7.30
2023-03-05T16:48:46.004Z,8.43
2023-03-05T16:51:14.391Z,7.80
2023-03-05T16:53:42.533Z,7.25
2023-03-05T16:56:11.350Z,10.50
2023-03-05T16:58:41.725Z,6.68
2023-03-05T17:01:14.763Z,10.02
2023-03-05T17:03:44.583Z,21.73
2023-03-05T17:06:14.766Z,79.53
2023-03-05T17:08:44.367Z,148.18
2023-03-05T17:11:12.720Z,36.65
2023-03-05T17:13:41.780Z,11.77
2023-03-05T17:16:11.048Z,11.50
2023-03-05T17:18:39.422Z,9.70
2023-03-05T17:21:08.905Z,12.07
2023-03-05T17:23:38.221Z,8.15
2023-03-05T17:26:08.906Z,8.65
2023-03-05T17:28:37.215Z,9.48
2023-03-05T17:31:05.684Z,8.52
2023-03-05T17:33:33.944Z,9.40
2023-03-05T17:36:03.036Z,8.73
2023-03-05T17:38:31.539Z,8.77
2023-03-05T17:40:59.288Z,7.60
2023-03-05T17:43:26.989Z,23.05
2023-03-05T17:45:54.811Z,10.25
2023-03-05T17:48:22.495Z,5.75
2023-03-05T17:50:50.244Z,8.07
2023-03-05T17:53:18.413Z,7.62
2023-03-05T17:55:46.091Z,7.93
2023-03-05T17:58:13.915Z,8.50
2023-03-05T18:00:41.819Z,10.48
2023-03-05T18:03:09.632Z,10.98
2023-03-05T18:05:37.643Z,9.68
2023-03-05T18:08:05.767Z,8.60
2023-03-05T18:10:34.288Z,9.07
2023-03-05T18:13:02.154Z,10.50
2023-03-05T18:15:30.837Z,11.07
2023-03-05T18:17:59.689Z,9.48
2023-03-05T18:20:34.679Z,10.27
2023-03-05T18:23:03.594Z,10.15
2023-03-05T18:25:32.208Z,10.00
2023-03-05T18:28:05.511Z,9.32
2023-03-05T18:30:33.859Z,9.23
2023-03-05T18:33:02.296Z,7.95
2023-03-05T18:35:30.396Z,10.45
2023-03-05T18:37:58.780Z,9.38
2023-03-05T18:40:29.262Z,11.20
2023-03-05T18:42:57.128Z,8.77
2023-03-05T18:45:24.988Z,7.93
2023-03-05T18:47:55.238Z,9.77
2023-03-05T18:50:25.468Z,12.13
2023-03-05T18:52:53.345Z,8.63
2023-03-05T18:55:25.100Z,10.65
2023-03-05T18:57:53.032Z,8.05
2023-03-05T19:00:24.373Z,9.02
2023-03-05T19:02:53.061Z,9.43
2023-03-05T19:05:21.655Z,9.98
2023-03-05T19:07:49.903Z,9.65
2023-03-05T19:10:18.821Z,10.15
2023-03-05T19:12:56.470Z,10.32
2023-03-05T19:15:24.823Z,9.07
2023-03-05T19:17:52.755Z,11.73
2023-03-05T19:20:20.686Z,8.77
2023-03-05T19:22:51.854Z,11.40
2023-03-05T19:25:20.091Z,10.52
2023-03-05T19:27:47.859Z,10.13
2023-03-05T19:30:17.392Z,13.05
2023-03-05T19:32:48.247Z,11.15
2023-03-05T19:35:17.467Z,10.95
2023-03-05T19:37:47.024Z,13.70
2023-03-05T19:40:15.871Z,15.63
2023-03-05T19:42:43.912Z,14.57
2023-03-05T19:45:12.137Z,14.35
2023-03-05T19:47:39.882Z,15.75
2023-03-05T19:50:08.477Z,20.00
2023-03-05T19:52:36.300Z,18.12
2023-03-05T19:55:05.145Z,15.43
2023-03-05T19:57:33.495Z,17.60
2023-03-05T20:00:01.330Z,14.45
2023-03-05T20:02:29.451Z,13.57
2023-03-05T20:04:57.297Z,13.35
2023-03-05T20:07:25.122Z,12.65
2023-03-05T20:09:54.297Z,14.85
2023-03-05T20:12:23.397Z,15.38
2023-03-05T20:14:51.250Z,12.40
2023-03-05T20:17:19.118Z,12.50
2023-03-05T20:19:46.855Z,15.07
2023-03-05T20:22:14.562Z,15.10
2023-03-05T20:24:42.360Z,14.25
2023-03-05T20:27:10.050Z,12.35
2023-03-05T20:29:37.795Z,13.10
2023-03-05T20:32:05.739Z,13.73
2023-03-05T20:34:33.575Z,19.85
2023-03-05T20:37:01.286Z,14.68
2023-03-05T20:39:28.952Z,14.02
2023-03-05T20:41:56.677Z,13.02
2023-03-05T20:44:24.495Z,11.02
2023-03-05T20:47:03.764Z,11.27
2023-03-05T20:49:31.697Z,12.25
2023-03-05T20:51:59.309Z,14.00
2023-03-05T20:54:28.391Z,12.27
2023-03-05T20:56:56.015Z,12.25
2023-03-05T20:59:24.457Z,11.20
2023-03-05T21:01:52.195Z,11.63
2023-03-05T21:04:20.077Z,12.80
2023-03-05T21:06:48.832Z,11.23
2023-03-05T21:09:16.632Z,12.27
2023-03-05T21:11:44.398Z,11.63
2023-03-05T21:14:12.332Z,10.40
2023-03-05T21:16:40.302Z,10.57
2023-03-05T21:19:07.991Z,10.15
2023-03-05T21:21:35.702Z,9.55
2023-03-05T21:24:03.396Z,11.25
2023-03-05T21:26:31.025Z,9.63
2023-03-05T21:28:58.880Z,10.02
2023-03-05T21:31:26.703Z,10.98
2023-03-05T21:33:54.435Z,10.00
2023-03-05T21:36:22.301Z,11.23
2023-03-05T21:38:50.687Z,10.95
2023-03-05T21:41:19.278Z,11.93
2023-03-05T21:43:47.306Z,9.75
2023-03-05T21:46:15.583Z,10.40
2023-03-05T21:48:43.463Z,11.75
2023-03-05T21:51:13.728Z,9.93
2023-03-05T21:53:41.480Z,8.48
2023-03-05T21:56:19.051Z,8.93
2023-03-05T21:58:46.945Z,9.18
2023-03-05T22:01:17.284Z,11.88
2023-03-05T22:03:45.087Z,7.82
2023-03-05T22:06:15.992Z,9.02
2023-03-05T22:08:44.069Z,13.55
2023-03-05T22:11:14.313Z,11.90
2023-03-05T22:13:42.200Z,11.10
2023-03-05T22:16:13.402Z,10.40
2023-03-05T22:18:41.110Z,10.45
2023-03-05T22:21:19.346Z,7.12
2023-03-05T22:23:47.407Z,7.28
2023-03-05T22:26:15.289Z,8.60
2023-03-05T22:28:43.755Z,8.38
2023-03-05T22:31:11.851Z,7.30
2023-03-05T22:33:39.568Z,8.98
2023-03-05T22:36:11.910Z,7.82
2023-03-05T22:38:40.083Z,8.68
2023-03-05T22:41:10.163Z,5.78
2023-03-05T22:43:38.682Z,8.48
2023-03-05T22:46:15.795Z,8.63
2023-03-05T22:48:44.349Z,6.78
2023-03-05T22:51:13.277Z,9.43
2023-03-05T22:53:41.555Z,7.47
2023-03-05T22:56:11.795Z,7.00
2023-03-05T22:58:39.835Z,9.50
2023-03-05T23:01:15.663Z,9.73
2023-03-05T23:03:43.848Z,9.20
2023-03-05T23:06:11.818Z,9.10
2023-03-05T23:08:39.593Z,8.85
2023-03-05T23:11:12.279Z,6.80
2023-03-05T23:13:41.650Z,8.68
2023-03-05T23:16:10.581Z,6.97
2023-03-05T23:18:38.468Z,9.32
2023-03-05T23:21:06.421Z,10.10
2023-03-05T23:23:34.495Z,10.18
2023-03-05T23:26:02.372Z,8.30
2023-03-05T23:28:30.090Z,8.73
2023-03-05T23:30:58.886Z,10.95
2023-03-05T23:33:26.884Z,9.85
2023-03-05T23:36:00.241Z,9.25
2023-03-05T23:38:30.618Z,7.62
2023-03-05T23:41:01.613Z,7.68
2023-03-05T23:43:30.376Z,8.00
2023-03-05T23:45:58.334Z,9.65
2023-03-05T23:48:27.548Z,7.87
2023-03-05T23:50:56.211Z,8.93
2023-03-05T23:53:27.241Z,7.40
2023-03-05T23:55:56.492Z,7.82
2023-03-05T23:58:24.758Z,11.65
